Time;durP1;ratioP1;P1;durP2;ratioP2;P2;SDS_P1;SDS_P2;PMS_P1;PMS_P2;Temp;Humidity;BMP_temperature;BMP_pressure;BME280_temperature;BME280_humidity;BME280_pressure;Samples;Min_cycle;Max_cycle;Signal;HPM_P1;HPM_P2
2022/03/24 00:00:24;;;;;;;24.38;15.70;;;;;;;7.56;48.50;102317.72;5047642;28;20055;-85
2022/03/24 00:02:51;;;;;;;34.55;16.00;;;;;;;7.55;48.44;102322.03;5047606;28;20040;-85
2022/03/24 00:05:18;;;;;;;22.05;14.85;;;;;;;7.54;48.17;102314.19;5050095;28;20069;-85
2022/03/24 00:07:45;;;;;;;36.35;16.95;;;;;;;7.50;48.53;102312.34;5032662;28;20052;-86
2022/03/24 00:10:12;;;;;;;29.63;16.85;;;;;;;7.45;48.51;102315.66;5068659;28;20470;-87
2022/03/24 00:12:40;;;;;;;36.22;18.13;;;;;;;7.43;48.66;102319.06;5049066;28;20084;-85
2022/03/24 00:15:09;;;;;;;29.95;15.63;;;;;;;7.39;48.58;102312.88;5072143;28;20080;-86
2022/03/24 00:21:27;;;;;;;27.05;15.13;;;;;;;7.26;48.87;102306.41;5085615;28;20044;-84
2022/03/24 00:23:54;;;;;;;29.40;15.80;;;;;;;7.20;48.72;102307.94;5071770;28;20071;-85
2022/03/24 00:26:23;;;;;;;29.17;16.98;;;;;;;7.14;48.90;102306.00;5065614;28;20135;-83
2022/03/24 00:28:53;;;;;;;34.90;16.67;;;;;;;7.10;48.98;102310.25;5084616;28;20037;-83
2022/03/24 00:31:39;;;;;;;32.85;17.67;;;;;;;7.06;49.48;102308.34;5096517;28;20051;-84
2022/03/24 00:34:05;;;;;;;27.48;16.23;;;;;;;7.03;49.60;102310.88;5066619;28;20499;-84
2022/03/24 00:36:32;;;;;;;30.50;15.52;;;;;;;7.01;49.58;102302.13;5065220;28;20120;-84
2022/03/24 00:39:01;;;;;;;29.25;15.63;;;;;;;6.96;49.51;102303.69;5054133;28;20134;-82
2022/03/24 00:41:28;;;;;;;27.02;14.93;;;;;;;6.92;50.05;102302.72;5064646;28;20047;-85
2022/03/24 00:43:55;;;;;;;27.92;15.65;;;;;;;6.88;50.13;102303.47;5049735;28;20154;-84
2022/03/24 00:46:23;;;;;;;27.77;17.90;;;;;;;6.88;49.99;102302.56;5048707;28;20071;-86
2022/03/24 00:48:52;;;;;;;29.83;16.95;;;;;;;6.88;50.06;102297.34;5053077;28;20101;-85
2022/03/24 00:51:19;;;;;;;22.88;13.98;;;;;;;6.84;50.62;102298.97;5061859;28;20082;-84
2022/03/24 00:53:50;;;;;;;28.95;16.02;;;;;;;6.83;50.68;102304.13;5077319;28;20052;-87
2022/03/24 00:56:19;;;;;;;27.80;16.40;;;;;;;6.81;50.46;102295.41;5071416;28;20052;-86
2022/03/24 00:58:45;;;;;;;24.10;15.60;;;;;;;6.77;50.42;102297.00;5051095;28;20117;-87
2022/03/24 01:01:32;;;;;;;28.40;16.05;;;;;;;6.71;50.56;102289.00;5088103;28;20139;-83
2022/03/24 01:04:00;;;;;;;26.33;16.25;;;;;;;6.67;50.73;102277.59;5089223;28;20070;-88
2022/03/24 01:06:26;;;;;;;31.80;15.13;;;;;;;6.64;50.99;102287.03;5104575;28;20032;-87
2022/03/24 01:09:04;;;;;;;25.13;15.07;;;;;;;6.61;51.08;102287.81;5088925;28;20076;-87
2022/03/24 01:11:31;;;;;;;28.17;17.75;;;;;;;6.55;51.67;102291.06;5062580;28;20096;-85
2022/03/24 01:13:58;;;;;;;32.38;16.63;;;;;;;6.51;51.60;102288.34;5061042;28;20052;-84
2022/03/24 01:16:27;;;;;;;30.85;17.63;;;;;;;6.47;52.07;102287.34;5071092;28;20059;-84
2022/03/24 01:18:54;;;;;;;26.80;15.25;;;;;;;6.41;51.99;102280.22;5068189;28;20212;-84
2022/03/24 01:21:21;;;;;;;31.83;15.95;;;;;;;6.38;52.12;102281.81;5068903;28;20055;-85
2022/03/24 01:23:48;;;;;;;26.77;15.98;;;;;;;6.35;52.56;102282.59;5058663;28;20036;-85
2022/03/24 01:26:16;;;;;;;26.13;14.95;;;;;;;6.33;52.20;102286.84;5069434;28;20052;-84
2022/03/24 01:28:43;;;;;;;29.15;15.85;;;;;;;6.29;52.58;102278.03;5055873;28;20068;-84
2022/03/24 01:31:10;;;;;;;25.80;15.88;;;;;;;6.27;52.77;102278.81;5054481;28;20048;-85
2022/03/24 01:33:40;;;;;;;27.48;16.55;;;;;;;6.25;52.86;102278.78;5071273;28;20077;-85
2022/03/24 01:36:11;;;;;;;45.72;16.60;;;;;;;6.21;52.93;102276.03;5074448;28;20052;-83
2022/03/24 01:38:39;;;;;;;23.65;14.82;;;;;;;6.19;52.86;102275.09;5055168;28;20045;-86
2022/03/24 01:41:07;;;;;;;26.38;16.23;;;;;;;6.13;53.11;102273.16;5077136;28;20048;-86
2022/03/24 01:43:34;;;;;;;24.27;15.00;;;;;;;6.10;53.44;102271.34;5066465;28;20767;-84
2022/03/24 01:46:01;;;;;;;29.05;16.10;;;;;;;6.09;53.56;102271.28;5054873;28;20052;-84
2022/03/24 01:48:28;;;;;;;27.35;14.07;;;;;;;6.05;53.66;102270.28;5038214;28;20043;-84
2022/03/24 01:50:56;;;;;;;24.23;15.40;;;;;;;6.04;53.99;102265.03;5049580;28;20044;-84
2022/03/24 01:53:23;;;;;;;30.88;17.08;;;;;;;6.05;54.04;102259.88;5069405;28;20506;-84
2022/03/24 01:55:50;;;;;;;31.58;16.23;;;;;;;6.08;53.69;102264.31;5067831;28;20374;-84
2022/03/24 01:58:17;;;;;;;24.80;14.88;;;;;;;6.08;53.87;102261.72;5054401;28;20398;-84
2022/03/24 02:00:45;;;;;;;27.08;15.60;;;;;;;6.07;53.98;102266.00;5065990;28;20052;-85
2022/03/24 02:03:14;;;;;;;28.00;17.92;;;;;;;6.06;53.66;102261.66;5066280;28;20052;-84
2022/03/24 02:05:44;;;;;;;28.15;16.02;;;;;;;6.06;53.80;102258.16;5055596;28;20071;-85
2022/03/24 02:08:11;;;;;;;30.40;15.57;;;;;;;6.03;53.78;102258.94;5070481;28;20109;-84
2022/03/24 02:10:38;;;;;;;25.70;15.20;;;;;;;6.00;54.00;102258.84;5040964;28;20067;-84
2022/03/24 02:13:07;;;;;;;25.13;16.20;;;;;;;5.98;53.97;102255.28;5080885;28;20497;-84
2022/03/24 02:15:34;;;;;;;29.65;17.08;;;;;;;5.95;54.01;102265.53;5052673;28;20052;-84
2022/03/24 02:18:01;;;;;;;32.60;16.85;;;;;;;5.94;54.51;102262.06;5073313;28;20044;-84
2022/03/24 02:20:33;;;;;;;30.85;16.52;;;;;;;5.90;54.89;102260.16;5049184;28;20040;-84
2022/03/24 02:23:02;;;;;;;29.92;16.25;;;;;;;5.88;54.23;102263.53;5081968;28;20036;-83
2022/03/24 02:25:31;;;;;;;30.85;19.27;;;;;;;5.84;54.82;102259.06;5078057;28;20059;-86
2022/03/24 02:27:59;;;;;;;29.88;17.75;;;;;;;5.80;55.26;102251.16;5056824;28;20104;-83
2022/03/24 02:30:30;;;;;;;26.02;17.33;;;;;;;5.78;55.01;102258.00;5052492;28;20036;-86
2022/03/24 02:32:57;;;;;;;29.38;17.77;;;;;;;5.75;55.27;102255.31;5067873;28;20040;-87
2022/03/24 02:35:24;;;;;;;26.48;16.67;;;;;;;5.76;55.60;102258.78;5084390;28;20155;-84
2022/03/24 02:37:53;;;;;;;26.42;16.15;;;;;;;5.74;55.19;102257.88;5065731;28;20139;-84
2022/03/24 02:40:20;;;;;;;27.38;17.13;;;;;;;5.72;55.15;102252.63;5073422;28;20071;-85
2022/03/24 02:42:49;;;;;;;31.05;17.33;;;;;;;5.70;55.48;102259.47;5052215;28;20043;-84
2022/03/24 02:45:19;;;;;;;32.95;19.15;;;;;;;5.69;55.55;102259.41;5053207;28;21389;-86
2022/03/24 02:47:46;;;;;;;32.47;17.15;;;;;;;5.66;55.74;102261.88;5051861;28;20376;-85
2022/03/24 02:50:13;;;;;;;32.75;16.73;;;;;;;5.61;55.85;102253.91;5067912;28;20117;-86
2022/03/24 02:52:40;;;;;;;30.63;19.08;;;;;;;5.58;55.87;102254.69;5063244;28;20056;-85
2022/03/24 02:55:09;;;;;;;31.45;17.20;;;;;;;5.53;55.52;102245.84;5047602;28;20052;-85
2022/03/24 02:57:36;;;;;;;31.92;17.10;;;;;;;5.50;55.87;102248.34;5047075;28;20052;-84
2022/03/24 03:00:07;;;;;;;33.10;18.55;;;;;;;5.44;55.96;102254.16;5066303;28;20053;-85
2022/03/24 03:02:33;;;;;;;27.95;17.80;;;;;;;5.44;56.05;102256.75;5063955;28;20044;-86
2022/03/24 03:05:01;;;;;;;31.08;16.80;;;;;;;5.40;56.66;102267.84;5081671;28;20908;-85
2022/03/24 03:07:28;;;;;;;27.80;17.15;;;;;;;5.37;56.37;102261.66;5063769;28;20048;-86
2022/03/24 03:09:55;;;;;;;26.27;15.90;;;;;;;5.31;56.51;102262.31;5055878;28;20056;-85
2022/03/24 03:12:23;;;;;;;27.50;15.95;;;;;;;5.29;56.90;102256.16;5051299;28;20044;-87
2022/03/24 03:14:51;;;;;;;30.95;17.38;;;;;;;5.26;56.69;102261.25;5066373;28;20041;-85
2022/03/24 03:17:22;;;;;;;28.58;18.48;;;;;;;5.23;56.57;102258.53;5062763;28;20524;-85
2022/03/24 03:19:54;;;;;;;26.42;16.65;;;;;;;5.19;56.92;102261.81;5079803;28;20101;-85
2022/03/24 03:22:21;;;;;;;31.05;18.17;;;;;;;5.17;56.89;102260.91;5061757;28;20032;-86
2022/03/24 03:24:50;;;;;;;33.88;18.27;;;;;;;5.14;57.18;102259.06;5042530;28;20047;-87
2022/03/24 03:27:22;;;;;;;23.88;15.70;;;;;;;5.12;57.14;102265.91;5048417;28;20057;-84
2022/03/24 03:29:51;;;;;;;32.15;17.08;;;;;;;5.09;57.27;102271.84;5058974;28;20049;-84
2022/03/24 03:32:19;;;;;;;31.40;16.52;;;;;;;5.03;57.61;102265.53;5064870;28;20048;-84
2022/03/24 03:34:49;;;;;;;37.47;18.85;;;;;;;4.99;57.83;102264.53;5046534;28;20037;-85
2022/03/24 03:37:18;;;;;;;29.25;17.42;;;;;;;4.99;57.51;102263.66;5048067;28;20049;-87
2022/03/24 03:39:45;;;;;;;28.05;16.25;;;;;;;4.94;57.46;102253.97;5056959;28;20679;-86
2022/03/24 03:42:15;;;;;;;31.40;17.63;;;;;;;4.92;57.96;102259.91;5046241;28;20054;-86
2022/03/24 03:44:42;;;;;;;29.60;18.60;;;;;;;4.90;58.01;102264.16;5046555;28;20080;-86
2022/03/24 03:47:11;;;;;;;26.98;17.27;;;;;;;4.88;58.25;102263.22;5063912;28;20048;-84
2022/03/24 03:49:38;;;;;;;31.20;17.20;;;;;;;4.86;57.96;102270.03;5047539;28;20080;-87
2022/03/24 03:52:05;;;;;;;35.55;17.85;;;;;;;4.82;58.24;102263.84;5073171;28;20060;-86
2022/03/24 03:54:32;;;;;;;33.03;16.88;;;;;;;4.81;58.55;102264.69;5081474;28;20051;-85
2022/03/24 03:56:59;;;;;;;30.48;18.13;;;;;;;4.77;58.50;102254.97;5066265;28;20486;-85
2022/03/24 03:59:25;;;;;;;31.20;18.65;;;;;;;4.77;59.01;102262.75;5050466;28;20048;-85
2022/03/24 04:01:53;;;;;;;32.92;18.65;;;;;;;4.75;59.02;102265.31;5054012;28;20570;-85
2022/03/24 04:04:19;;;;;;;38.80;19.15;;;;;;;4.73;59.15;102266.06;5063467;28;20089;-86
2022/03/24 04:06:46;;;;;;;35.05;18.67;;;;;;;4.69;59.14;102264.16;5050107;28;20048;-84
2022/03/24 04:09:13;;;;;;;31.90;19.08;;;;;;;4.66;59.44;102262.34;5055858;28;20047;-86
2022/03/24 04:11:40;;;;;;;32.88;18.10;;;;;;;4.61;59.77;102261.25;5062196;28;20074;-85
2022/03/24 04:14:07;;;;;;;36.50;17.90;;;;;;;4.56;60.13;102262.78;5047100;28;20056;-86
2022/03/24 04:16:34;;;;;;;34.10;18.42;;;;;;;4.50;59.63;102259.91;5063053;28;20052;-85
2022/03/24 04:19:05;;;;;;;30.42;18.80;;;;;;;4.43;59.86;102262.28;5064380;28;20774;-85
2022/03/24 04:21:32;;;;;;;31.17;18.77;;;;;;;4.38;60.48;102257.69;5063769;28;20044;-85
2022/03/24 04:23:58;;;;;;;31.85;17.73;;;;;;;4.33;60.36;102261.78;5046192;28;20071;-85
2022/03/24 04:26:25;;;;;;;29.95;16.63;;;;;;;4.29;60.50;102253.91;5050328;28;20048;-85
2022/03/24 04:28:52;;;;;;;31.02;17.90;;;;;;;4.26;60.62;102258.06;5045862;28;20071;-85
2022/03/24 04:31:22;;;;;;;27.77;16.67;;;;;;;4.24;60.63;102255.41;5049937;28;20076;-86
2022/03/24 04:33:58;;;;;;;33.30;17.55;;;;;;;4.22;60.50;102262.22;5078997;28;20051;-86
2022/03/24 04:36:35;;;;;;;36.55;19.50;;;;;;;4.20;61.11;102253.50;5064040;28;20157;-85
2022/03/24 04:39:02;;;;;;;30.38;18.25;;;;;;;4.19;60.89;102261.22;5051734;28;20044;-86
2022/03/24 04:41:29;;;;;;;45.03;20.95;;;;;;;4.16;61.95;102259.38;5063719;28;20058;-85
2022/03/24 04:43:58;;;;;;;32.60;18.98;;;;;;;4.16;61.74;102253.28;5071251;28;20036;-84
2022/03/24 04:46:28;;;;;;;34.38;19.08;;;;;;;4.13;61.71;102251.47;5072518;28;20131;-84
2022/03/24 04:48:55;;;;;;;30.70;18.35;;;;;;;4.17;62.07;102255.94;5069741;28;20063;-85
2022/03/24 04:51:26;;;;;;;37.40;17.65;;;;;;;4.18;61.88;102259.44;5062568;28;20048;-85
2022/03/24 04:53:55;;;;;;;34.25;19.00;;;;;;;4.16;62.01;102253.28;5063624;28;20048;-87
2022/03/24 04:56:24;;;;;;;38.85;20.10;;;;;;;4.13;62.57;102251.47;5052972;28;20039;-85
2022/03/24 04:58:53;;;;;;;29.77;18.42;;;;;;;4.10;62.20;102254.81;5049276;28;20585;-86
2022/03/24 05:01:22;;;;;;;37.83;18.00;;;;;;;4.11;63.24;102256.59;5067643;28;20048;-86
2022/03/24 05:03:51;;;;;;;37.50;18.77;;;;;;;4.09;62.83;102259.94;5052490;28;20043;-86
2022/03/24 05:06:22;;;;;;;35.95;18.13;;;;;;;4.09;63.00;102262.50;5051987;28;20040;-87
2022/03/24 05:08:51;;;;;;;35.22;19.48;;;;;;;4.06;62.72;102252.03;5076442;28;20048;-86
2022/03/24 05:11:22;;;;;;;35.38;19.13;;;;;;;4.00;62.98;102260.41;5064810;28;20040;-86
2022/03/24 05:13:48;;;;;;;30.42;16.85;;;;;;;3.94;62.80;102252.38;5078469;28;20037;-86
2022/03/24 05:16:17;;;;;;;35.63;20.38;;;;;;;3.91;62.72;102260.00;5068546;28;20167;-86
2022/03/24 05:18:46;;;;;;;31.75;17.55;;;;;;;3.86;63.31;102259.81;5050677;28;20044;-86
2022/03/24 05:21:13;;;;;;;30.02;17.85;;;;;;;3.85;63.47;102258.03;5033768;28;20041;-86
2022/03/24 05:23:41;;;;;;;34.80;19.65;;;;;;;3.84;63.38;102261.44;5050403;28;20048;-84
2022/03/24 05:26:07;;;;;;;33.85;19.30;;;;;;;3.83;63.72;102259.66;5082489;28;20036;-86
2022/03/24 05:28:35;;;;;;;33.25;17.67;;;;;;;3.80;63.68;102254.34;5070491;28;20047;-87
2022/03/24 05:31:02;;;;;;;26.85;17.50;;;;;;;3.80;63.51;102259.53;5052836;28;20052;-87
2022/03/24 05:33:28;;;;;;;33.10;19.35;;;;;;;3.79;63.84;102258.66;5070318;28;20044;-86
2022/03/24 05:35:58;;;;;;;35.25;20.77;;;;;;;3.77;63.86;102254.22;5066619;28;20821;-85
2022/03/24 05:41:12;;;;;;;37.22;19.42;;;;;;;3.79;64.17;102260.34;5066716;28;20052;-85
2022/03/24 05:44:02;;;;;;;28.30;17.95;;;;;;;3.81;64.31;102257.00;5082016;28;20032;-87
2022/03/24 05:46:44;;;;;;;44.85;20.55;;;;;;;3.84;63.74;102261.44;5071041;28;20090;-87
2022/03/24 05:49:15;;;;;;;34.03;18.83;;;;;;;3.86;63.91;102261.50;5068555;28;20062;-87
2022/03/24 05:51:51;;;;;;;33.15;17.75;;;;;;;3.85;63.72;102255.44;5035466;28;20526;-86
2022/03/24 05:54:19;;;;;;;34.40;17.95;;;;;;;3.87;63.83;102260.69;5059869;28;20458;-86
2022/03/24 05:56:47;;;;;;;32.25;17.50;;;;;;;3.88;63.21;102257.28;5054574;28;20052;-85
2022/03/24 05:59:15;;;;;;;31.88;17.95;;;;;;;3.90;63.49;102253.94;5065889;28;20047;-86
2022/03/24 06:01:47;;;;;;;33.13;19.17;;;;;;;3.92;63.29;102262.66;5069620;28;20155;-86
2022/03/24 06:04:15;;;;;;;35.20;18.80;;;;;;;3.94;63.57;102268.81;5065602;28;20040;-86
2022/03/24 06:06:44;;;;;;;36.53;19.95;;;;;;;3.98;63.56;102256.88;5071430;28;20044;-84
2022/03/24 06:09:11;;;;;;;36.65;19.65;;;;;;;4.02;62.90;102269.13;5071854;28;21524;-85
2022/03/24 06:11:38;;;;;;;32.05;17.58;;;;;;;4.08;63.10;102271.09;5059910;28;20040;-85
2022/03/24 06:14:12;;;;;;;35.05;20.33;;;;;;;4.13;62.88;102272.19;5056886;28;21275;-84
2022/03/24 06:16:40;;;;;;;30.20;18.35;;;;;;;4.20;62.74;102274.25;5054217;28;20122;-84
2022/03/24 06:19:11;;;;;;;37.88;20.67;;;;;;;4.32;62.59;102273.88;5049990;28;20051;-86
2022/03/24 06:21:39;;;;;;;33.92;20.13;;;;;;;4.50;62.03;102268.59;5081532;28;20052;-84
2022/03/24 06:24:16;;;;;;;33.70;19.33;;;;;;;4.71;61.46;102276.38;5063654;28;20052;-86
2022/03/24 06:26:43;;;;;;;35.90;19.20;;;;;;;4.94;60.55;102279.91;5046504;28;20391;-86
2022/03/24 06:29:13;;;;;;;35.53;17.85;;;;;;;5.16;60.23;102272.97;5070168;28;20401;-83
2022/03/24 06:31:42;;;;;;;32.92;17.50;;;;;;;5.39;59.49;102275.59;5087554;28;20089;-85
2022/03/24 06:34:10;;;;;;;31.65;17.25;;;;;;;5.63;59.16;102275.63;5078971;28;20047;-85
2022/03/24 06:36:37;;;;;;;37.33;19.02;;;;;;;5.89;58.55;102273.13;5048826;28;20142;-85
2022/03/24 06:39:05;;;;;;;34.33;19.10;;;;;;;6.12;58.09;102284.38;5051423;28;20461;-88
2022/03/24 06:41:33;;;;;;;37.70;20.70;;;;;;;6.36;57.83;102280.88;5051246;28;20074;-85
2022/03/24 06:44:06;;;;;;;32.40;19.08;;;;;;;6.58;56.93;102283.38;5056307;28;20508;-86
2022/03/24 06:46:33;;;;;;;37.25;18.67;;;;;;;6.85;56.47;102287.72;5046693;28;20062;-86
2022/03/24 06:49:03;;;;;;;31.40;17.50;;;;;;;7.12;55.53;102279.91;5066288;28;20032;-84
2022/03/24 06:51:31;;;;;;;36.58;19.95;;;;;;;7.38;54.97;102285.06;5066711;28;20052;-86
2022/03/24 06:53:58;;;;;;;33.22;19.75;;;;;;;7.58;54.07;102279.56;5049497;28;20065;-83
2022/03/24 06:56:25;;;;;;;33.08;20.42;;;;;;;7.79;53.07;102274.09;5065389;28;20054;-85
2022/03/24 06:58:52;;;;;;;32.92;19.77;;;;;;;7.96;52.68;102271.94;5051926;28;20044;-86
2022/03/24 07:01:20;;;;;;;39.08;21.63;;;;;;;8.25;52.13;102275.38;5081653;28;20131;-86
2022/03/24 07:03:47;;;;;;;50.60;29.15;;;;;;;8.54;50.97;102276.97;5064881;28;20041;-86
2022/03/24 07:06:14;;;;;;;47.22;29.02;;;;;;;8.78;50.68;102284.56;5081232;28;20040;-84
2022/03/24 07:08:40;;;;;;;46.33;26.58;;;;;;;9.03;49.77;102277.31;5089704;28;20036;-87
2022/03/24 07:11:07;;;;;;;45.83;22.73;;;;;;;9.16;48.30;102281.09;5072826;28;20052;-87
2022/03/24 07:13:34;;;;;;;34.55;20.42;;;;;;;9.20;47.44;102278.56;5094433;28;20092;-88
2022/03/24 07:16:01;;;;;;;44.78;20.65;;;;;;;9.13;47.31;102284.53;5096273;28;20039;-87
2022/03/24 07:18:27;;;;;;;32.70;19.40;;;;;;;9.28;46.95;102281.38;5104173;28;20064;-84
2022/03/24 07:20:59;;;;;;;34.15;19.20;;;;;;;9.70;46.69;102285.78;5041356;28;20125;-85
2022/03/24 07:23:25;;;;;;;32.42;19.80;;;;;;;10.02;45.79;102289.91;5074829;28;20570;-82
2022/03/24 07:25:53;;;;;;;31.58;20.23;;;;;;;10.38;45.20;102286.25;5069839;28;20824;-83
2022/03/24 07:28:20;;;;;;;31.38;20.08;;;;;;;10.71;44.33;102285.94;5055259;28;20435;-87
2022/03/24 07:30:50;;;;;;;38.20;21.02;;;;;;;11.00;43.78;102288.19;5071268;28;20040;-85
2022/03/24 07:33:19;;;;;;;42.80;22.55;;;;;;;11.30;42.47;102293.84;5065845;28;20051;-87
2022/03/24 07:35:48;;;;;;;32.33;19.65;;;;;;;11.49;41.80;102284.50;5072527;28;20071;-85
2022/03/24 07:41:04;;;;;;;29.73;19.08;;;;;;;12.04;41.18;102293.06;5055140;28;20498;-84
2022/03/24 07:43:30;;;;;;;;;;;;;;;12.29;39.14;102300.34;5054058;28;20052;-85
2022/03/24 07:45:57;;;;;;;35.83;22.08;;;;;;;12.55;40.14;102292.72;5036530;28;20358;-86
2022/03/24 07:48:25;;;;;;;35.45;22.05;;;;;;;12.80;39.08;102291.19;5062525;28;20481;-86
2022/03/24 07:51:00;;;;;;;33.00;22.10;;;;;;;13.14;38.83;102290.53;5054246;28;20047;-83
2022/03/24 07:53:29;;;;;;;36.92;21.85;;;;;;;13.43;37.91;102295.13;5068649;28;20131;-83
2022/03/24 07:56:01;;;;;;;34.75;21.52;;;;;;;13.66;37.17;102288.25;5093679;28;20041;-82
2022/03/24 07:58:30;;;;;;;38.10;21.65;;;;;;;13.89;36.57;102284.81;5041411;28;20040;-84
2022/03/24 08:00:59;;;;;;;36.75;23.08;;;;;;;14.16;36.18;102294.56;5036403;28;20498;-86
2022/03/24 08:03:27;;;;;;;29.88;21.50;;;;;;;14.49;35.61;102297.25;5075668;28;20052;-82
2022/03/24 08:05:55;;;;;;;33.78;22.25;;;;;;;14.82;35.38;102299.06;5068116;28;20043;-85
2022/03/24 08:08:55;;;;;;;30.10;22.10;;;;;;;15.26;34.24;102296.38;5059357;28;20066;-81
2022/03/24 08:11:25;;;;;;;31.48;20.88;;;;;;;15.69;33.74;102297.09;5059804;28;20056;-86
2022/03/24 08:13:54;;;;;;;34.88;24.90;;;;;;;15.85;32.65;102297.97;5094458;28;20052;-83
2022/03/24 08:16:26;;;;;;;29.58;21.77;;;;;;;15.89;32.62;102304.06;5080195;28;20040;-85
2022/03/24 08:18:54;;;;;;;34.28;22.65;;;;;;;16.21;32.33;102301.25;5057610;28;21023;-85
2022/03/24 08:21:25;;;;;;;35.42;24.58;;;;;;;16.58;31.46;102300.13;5079916;28;20147;-83
2022/03/24 08:23:52;;;;;;;32.55;22.83;;;;;;;16.93;30.96;102301.63;5094171;28;20127;-86
2022/03/24 08:26:21;;;;;;;33.92;23.95;;;;;;;17.06;29.99;102306.84;5053077;28;20085;-86
2022/03/24 08:28:57;;;;;;;34.15;23.88;;;;;;;17.11;29.99;102297.09;5076018;28;20036;-83
2022/03/24 08:39:40;;;;;;;32.92;22.60;;;;;;;18.43;28.46;102307.78;5068434;28;20048;-87
2022/03/24 08:42:07;;;;;;;36.45;24.23;;;;;;;18.60;27.78;102304.88;5067505;28;20048;-85
2022/03/24 08:44:34;;;;;;;31.30;23.70;;;;;;;18.78;27.99;102309.00;5064083;28;20560;-80
2022/03/24 08:47:00;;;;;;;35.80;23.27;;;;;;;19.25;27.37;102309.06;5053005;28;20737;-82
2022/03/24 08:49:27;;;;;;;30.23;23.40;;;;;;;19.60;26.81;102307.50;5073455;28;20124;-85
2022/03/24 08:51:55;;;;;;;34.92;23.23;;;;;;;19.74;26.50;102306.38;5069614;28;20044;-83
2022/03/24 08:54:22;;;;;;;34.03;26.15;;;;;;;20.10;26.28;102296.75;5067688;28;20123;-88
2022/03/24 08:56:48;;;;;;;35.42;24.27;;;;;;;20.67;25.72;102302.47;5059271;28;20055;-84
2022/03/24 08:59:16;;;;;;;34.85;24.77;;;;;;;21.14;25.14;102297.72;5069160;28;20054;-85
2022/03/24 09:01:43;;;;;;;39.85;25.40;;;;;;;21.36;24.44;102299.81;5053819;28;20156;-89
2022/03/24 09:04:11;;;;;;;30.17;24.38;;;;;;;21.49;24.38;102298.53;5072528;28;20052;-88
2022/03/24 09:06:40;;;;;;;32.53;25.00;;;;;;;21.61;24.04;102297.34;5054027;28;20101;-83
2022/03/24 09:09:07;;;;;;;35.33;25.55;;;;;;;21.96;23.80;102300.75;5053220;28;20056;-84
2022/03/24 09:11:34;;;;;;;30.23;24.83;;;;;;;21.98;23.62;102303.38;5076002;28;20037;-85
2022/03/24 09:14:03;;;;;;;31.90;25.02;;;;;;;22.03;23.33;102304.13;5078826;28;20044;-87
2022/03/24 09:16:30;;;;;;;30.80;23.40;;;;;;;21.94;23.65;102302.59;5081176;28;20512;-83
2022/03/24 09:18:59;;;;;;;35.55;24.75;;;;;;;22.39;23.28;102303.03;5071136;28;20044;-83
2022/03/24 09:21:33;;;;;;;34.92;25.65;;;;;;;22.89;22.03;102304.91;5052710;28;20035;-81
2022/03/24 09:24:00;;;;;;;32.30;23.73;;;;;;;23.02;22.38;102308.88;5050501;28;20095;-83
2022/03/24 09:26:27;;;;;;;29.42;23.35;;;;;;;23.39;22.16;102306.75;5037916;28;20048;-84
2022/03/24 09:28:53;;;;;;;32.00;23.95;;;;;;;23.42;21.79;102311.97;5067781;28;20048;-85
2022/03/24 09:31:21;;;;;;;33.55;23.95;;;;;;;22.51;22.49;102307.94;5047262;28;20075;-85
2022/03/24 09:33:49;;;;;;;31.52;23.50;;;;;;;21.11;23.94;102312.94;5049985;28;20040;-86
2022/03/24 09:36:17;;;;;;;31.88;25.17;;;;;;;19.72;25.08;102318.81;5051023;28;20106;-86
2022/03/24 09:38:44;;;;;;;34.70;25.58;;;;;;;18.61;26.19;102317.22;5065848;28;20125;-83
2022/03/24 09:41:14;;;;;;;35.65;24.48;;;;;;;17.70;27.30;102318.47;5041075;28;20039;-89
2022/03/24 09:43:41;;;;;;;36.20;24.23;;;;;;;17.48;28.27;102312.56;5035037;28;20040;-88
2022/03/24 09:46:11;;;;;;;32.38;22.67;;;;;;;18.35;26.87;102310.59;5053545;28;20079;-82
2022/03/24 09:48:42;;;;;;;34.38;23.67;;;;;;;19.90;25.22;102312.25;5069645;28;20151;-83
2022/03/24 09:51:09;;;;;;;31.17;22.40;;;;;;;21.24;23.62;102303.69;5054120;28;20044;-83
2022/03/24 09:53:39;;;;;;;26.92;20.85;;;;;;;22.42;22.35;102300.25;5069231;28;20044;-82
2022/03/24 09:58:51;;;;;;;33.47;23.90;;;;;;;24.09;20.77;102299.63;5068012;28;20744;-88
2022/03/24 10:01:18;;;;;;;28.70;21.83;;;;;;;24.51;20.29;102304.19;5066177;28;20044;-89
2022/03/24 10:04:14;;;;;;;27.75;22.30;;;;;;;25.05;19.77;102293.00;5071318;28;20093;-85
2022/03/24 10:06:59;;;;;;;26.52;21.58;;;;;;;25.87;19.32;102298.22;5058148;28;20130;-84
2022/03/24 10:10:01;;;;;;;29.02;22.27;;;;;;;25.94;18.22;102298.78;5073016;28;20068;-83
2022/03/24 10:12:36;;;;;;;27.77;21.63;;;;;;;25.92;18.98;102303.38;5045822;28;20161;-84
2022/03/24 10:15:14;;;;;;;29.50;22.55;;;;;;;26.28;18.44;102289.13;5084436;28;20044;-84
2022/03/24 10:17:50;;;;;;;29.27;21.77;;;;;;;26.41;18.65;102294.75;5072311;28;20059;-89
2022/03/24 10:20:19;;;;;;;27.35;22.25;;;;;;;26.86;18.34;102293.38;5056764;28;20510;-87
2022/03/24 10:23:07;;;;;;;30.00;22.83;;;;;;;27.38;17.57;102295.16;5095012;28;20051;-89
2022/03/24 10:25:39;;;;;;;27.13;22.48;;;;;;;27.79;17.54;102288.44;5078269;28;20044;-90
2022/03/24 10:28:21;;;;;;;31.55;23.30;;;;;;;28.30;17.11;102282.00;5066648;28;20094;-82
2022/03/24 10:31:02;;;;;;;27.17;21.25;;;;;;;28.72;16.18;102277.75;5083445;28;20032;-89
2022/03/24 10:33:45;;;;;;;27.15;21.98;;;;;;;28.38;16.06;102285.13;5068413;28;20068;-85
2022/03/24 10:36:17;;;;;;;25.65;22.88;;;;;;;28.10;17.05;102277.78;5081593;28;20118;-85
2022/03/24 10:38:52;;;;;;;30.58;23.80;;;;;;;28.33;16.94;102284.50;5079890;28;20036;-88
2022/03/24 10:41:20;;;;;;;28.02;21.23;;;;;;;28.61;16.47;102277.50;5070102;28;20390;-88
2022/03/24 10:43:49;;;;;;;26.60;20.90;;;;;;;28.92;16.28;102276.53;5077963;28;20044;-87
2022/03/24 10:46:25;;;;;;;25.05;21.60;;;;;;;29.01;15.94;102275.97;5079792;28;20050;-84
2022/03/24 10:48:54;;;;;;;23.60;21.00;;;;;;;29.56;15.88;102268.09;5072656;28;20123;-84
2022/03/24 10:51:31;;;;;;;27.88;20.85;;;;;;;29.87;15.47;102266.16;5071929;28;20123;-83
2022/03/24 10:54:22;;;;;;;28.98;23.13;;;;;;;29.97;15.13;102261.88;5073703;28;20079;-82
2022/03/24 10:57:07;;;;;;;23.20;20.13;;;;;;;30.16;14.75;102258.78;5064387;28;20063;-82
2022/03/24 10:59:41;;;;;;;26.38;21.40;;;;;;;30.02;15.16;102259.72;5062464;28;20058;-81
2022/03/24 11:02:09;;;;;;;27.23;24.13;;;;;;;30.23;15.28;102261.09;5081420;28;20048;-85
2022/03/24 11:04:37;;;;;;;22.75;20.30;;;;;;;30.51;15.10;102252.88;5075859;28;20122;-82
2022/03/24 11:07:05;;;;;;;30.63;21.40;;;;;;;30.54;14.83;102259.91;5078601;28;20044;-81
2022/03/24 11:09:34;;;;;;;22.05;18.40;;;;;;;30.63;14.87;102261.09;5076988;28;20094;-85
2022/03/24 11:12:33;;;;;;;27.30;20.08;;;;;;;31.14;14.19;102266.53;5063597;28;20040;-86
2022/03/24 11:15:05;;;;;;;23.63;20.25;;;;;;;31.71;13.94;102256.19;5070864;28;20044;-82
2022/03/24 11:17:40;;;;;;;28.15;20.55;;;;;;;31.73;14.14;102261.47;5088020;28;20150;-82
2022/03/24 11:20:49;;;;;;;23.00;20.50;;;;;;;31.62;13.90;102256.88;5099716;28;20052;-82
2022/03/24 11:23:22;;;;;;;27.48;21.38;;;;;;;31.67;14.06;102254.69;5062977;28;20048;-82
2022/03/24 11:25:53;;;;;;;22.60;20.13;;;;;;;31.95;13.68;102258.88;5063009;28;20079;-83
2022/03/24 11:28:21;;;;;;;25.15;21.00;;;;;;;32.13;13.59;102248.50;5088124;28;20479;-82
2022/03/24 11:30:48;;;;;;;26.05;20.42;;;;;;;32.54;13.60;102245.47;5066446;28;20044;-81
2022/03/24 11:33:40;;;;;;;24.27;20.52;;;;;;;33.06;13.38;102238.66;5073322;28;20051;-82
2022/03/24 11:36:11;;;;;;;24.30;19.38;;;;;;;33.60;12.94;102239.78;5080886;28;20146;-82
2022/03/24 11:38:43;;;;;;;26.88;20.25;;;;;;;34.17;12.87;102234.19;5077814;28;20048;-84
2022/03/24 11:41:27;;;;;;;24.60;19.92;;;;;;;33.36;12.46;102237.22;5075978;28;20077;-83
2022/03/24 11:44:06;;;;;;;21.92;19.55;;;;;;;32.79;13.23;102230.91;5058671;28;20044;-83
2022/03/24 11:46:47;;;;;;;26.90;19.13;;;;;;;32.90;12.99;102228.19;5078743;28;20048;-83